sensor_id;sensor_type;location;lat;lon;timestamp;pressure;altitude;pressure_sealevel;temperature;humidity
63535;BME280;55128;50.230;18.944;2023-04-27T00:00:35;98606.69;;;3.71;67.33
63535;BME280;55128;50.230;18.944;2023-04-27T00:05:36;98610.41;;;3.59;67.32
63535;BME280;55128;50.230;18.944;2023-04-27T00:10:38;98608.66;;;3.58;67.94
63535;BME280;55128;50.230;18.944;2023-04-27T00:15:38;98605.28;;;3.53;68.16
63535;BME280;55128;50.230;18.944;2023-04-27T00:20:40;98604.59;;;3.42;68.38
63535;BME280;55128;50.230;18.944;2023-04-27T00:25:40;98602.78;;;3.45;68.67
63535;BME280;55128;50.230;18.944;2023-04-27T00:30:40;98605.34;;;3.47;68.87
63535;BME280;55128;50.230;18.944;2023-04-27T00:35:41;98602.66;;;3.52;68.66
63535;BME280;55128;50.230;18.944;2023-04-27T00:40:41;98603.81;;;3.35;69.15
63535;BME280;55128;50.230;18.944;2023-04-27T00:45:42;98608.88;;;3.46;69.47
63535;BME280;55128;50.230;18.944;2023-04-27T00:50:42;98606.16;;;3.50;69.10
63535;BME280;55128;50.230;18.944;2023-04-27T00:55:43;98614.69;;;3.63;69.09
63535;BME280;55128;50.230;18.944;2023-04-27T01:00:43;98613.16;;;3.52;68.87
63535;BME280;55128;50.230;18.944;2023-04-27T01:05:43;98617.63;;;3.46;68.60
63535;BME280;55128;50.230;18.944;2023-04-27T01:10:44;98616.13;;;3.31;68.93
63535;BME280;55128;50.230;18.944;2023-04-27T01:15:44;98611.81;;;3.29;68.83
63535;BME280;55128;50.230;18.944;2023-04-27T01:20:45;98617.88;;;3.31;69.32
63535;BME280;55128;50.230;18.944;2023-04-27T01:25:45;98621.50;;;3.24;69.25
63535;BME280;55128;50.230;18.944;2023-04-27T01:30:45;98622.50;;;3.15;69.71
63535;BME280;55128;50.230;18.944;2023-04-27T01:35:46;98616.41;;;3.13;69.71
63535;BME280;55128;50.230;18.944;2023-04-27T01:40:46;98623.31;;;3.19;69.68
63535;BME280;55128;50.230;18.944;2023-04-27T01:45:46;98626.06;;;3.13;69.51
63535;BME280;55128;50.230;18.944;2023-04-27T01:50:47;98624.41;;;3.07;69.67
63535;BME280;55128;50.230;18.944;2023-04-27T01:55:47;98627.16;;;2.98;70.20
63535;BME280;55128;50.230;18.944;2023-04-27T02:00:48;98627.97;;;3.01;70.36
63535;BME280;55128;50.230;18.944;2023-04-27T02:05:48;98628.13;;;2.92;69.97
63535;BME280;55128;50.230;18.944;2023-04-27T02:10:49;98629.88;;;2.93;70.27
63535;BME280;55128;50.230;18.944;2023-04-27T02:15:49;98625.69;;;2.80;71.08
63535;BME280;55128;50.230;18.944;2023-04-27T02:20:49;98626.53;;;2.82;70.37
63535;BME280;55128;50.230;18.944;2023-04-27T02:25:50;98625.72;;;2.78;70.81
63535;BME280;55128;50.230;18.944;2023-04-27T02:30:50;98622.44;;;2.62;71.72
63535;BME280;55128;50.230;18.944;2023-04-27T02:35:51;98622.53;;;2.56;71.90
63535;BME280;55128;50.230;18.944;2023-04-27T02:40:54;98631.34;;;2.49;71.15
63535;BME280;55128;50.230;18.944;2023-04-27T02:45:55;98622.72;;;2.42;72.08
63535;BME280;55128;50.230;18.944;2023-04-27T02:50:55;98627.16;;;2.36;72.57
63535;BME280;55128;50.230;18.944;2023-04-27T02:55:56;98622.91;;;2.27;72.85
63535;BME280;55128;50.230;18.944;2023-04-27T03:00:57;98631.66;;;2.26;73.08
63535;BME280;55128;50.230;18.944;2023-04-27T03:05:57;98628.19;;;2.24;73.10
63535;BME280;55128;50.230;18.944;2023-04-27T03:10:58;98631.69;;;2.21;72.67
63535;BME280;55128;50.230;18.944;2023-04-27T03:15:58;98639.56;;;2.21;72.77
63535;BME280;55128;50.230;18.944;2023-04-27T03:21:11;98637.88;;;2.17;72.92
63535;BME280;55128;50.230;18.944;2023-04-27T03:26:13;98646.66;;;2.13;73.47
63535;BME280;55128;50.230;18.944;2023-04-27T03:31:14;98640.56;;;2.11;72.75
63535;BME280;55128;50.230;18.944;2023-04-27T03:36:15;98646.72;;;2.05;72.82
63535;BME280;55128;50.230;18.944;2023-04-27T03:41:15;98655.53;;;2.00;72.90
63535;BME280;55128;50.230;18.944;2023-04-27T03:46:15;98658.25;;;1.87;73.76
63535;BME280;55128;50.230;18.944;2023-04-27T03:51:15;98659.19;;;1.83;73.65
63535;BME280;55128;50.230;18.944;2023-04-27T03:56:16;98664.31;;;1.96;74.07
63535;BME280;55128;50.230;18.944;2023-04-27T04:01:16;98672.00;;;2.08;74.05
63535;BME280;55128;50.230;18.944;2023-04-27T04:06:17;98666.38;;;2.40;73.63
63535;BME280;55128;50.230;18.944;2023-04-27T04:11:18;98671.34;;;2.63;72.82
63535;BME280;55128;50.230;18.944;2023-04-27T04:16:18;98674.59;;;2.82;73.10
63535;BME280;55128;50.230;18.944;2023-04-27T04:21:18;98678.34;;;3.25;72.44
63535;BME280;55128;50.230;18.944;2023-04-27T04:26:19;98685.72;;;3.53;71.87
63535;BME280;55128;50.230;18.944;2023-04-27T04:31:19;98680.28;;;3.66;71.51
63535;BME280;55128;50.230;18.944;2023-04-27T04:36:20;98688.53;;;3.95;71.11
63535;BME280;55128;50.230;18.944;2023-04-27T04:41:21;98692.34;;;4.23;70.43
63535;BME280;55128;50.230;18.944;2023-04-27T04:46:22;98700.00;;;4.79;69.26
63535;BME280;55128;50.230;18.944;2023-04-27T04:51:25;98702.91;;;5.45;68.06
63535;BME280;55128;50.230;18.944;2023-04-27T04:56:25;98706.91;;;5.97;66.52
63535;BME280;55128;50.230;18.944;2023-04-27T05:01:26;98709.53;;;6.30;65.07
63535;BME280;55128;50.230;18.944;2023-04-27T05:06:26;98714.97;;;6.57;65.02
63535;BME280;55128;50.230;18.944;2023-04-27T05:11:26;98713.75;;;6.98;62.38
63535;BME280;55128;50.230;18.944;2023-04-27T05:16:27;98717.25;;;7.27;62.84
63535;BME280;55128;50.230;18.944;2023-04-27T05:21:27;98717.63;;;8.23;60.73
63535;BME280;55128;50.230;18.944;2023-04-27T05:26:27;98719.09;;;9.04;56.93
63535;BME280;55128;50.230;18.944;2023-04-27T05:31:28;98724.41;;;11.14;52.66
63535;BME280;55128;50.230;18.944;2023-04-27T05:36:28;98730.69;;;12.57;48.13
63535;BME280;55128;50.230;18.944;2023-04-27T05:41:29;98739.38;;;13.91;45.89
63535;BME280;55128;50.230;18.944;2023-04-27T05:46:30;98739.06;;;15.01;40.73
63535;BME280;55128;50.230;18.944;2023-04-27T05:51:31;98754.47;;;15.68;38.67
63535;BME280;55128;50.230;18.944;2023-04-27T05:56:32;98761.84;;;15.91;36.99
63535;BME280;55128;50.230;18.944;2023-04-27T06:01:32;98757.63;;;16.42;35.83
63535;BME280;55128;50.230;18.944;2023-04-27T06:06:33;98755.25;;;17.16;33.98
63535;BME280;55128;50.230;18.944;2023-04-27T06:11:34;98760.78;;;17.75;32.32
63535;BME280;55128;50.230;18.944;2023-04-27T06:16:34;98772.91;;;18.18;31.62
63535;BME280;55128;50.230;18.944;2023-04-27T06:21:35;98772.28;;;20.09;28.70
63535;BME280;55128;50.230;18.944;2023-04-27T06:26:35;98772.97;;;19.45;28.58
63535;BME280;55128;50.230;18.944;2023-04-27T06:31:36;98771.63;;;19.28;29.35
63535;BME280;55128;50.230;18.944;2023-04-27T06:36:36;98774.34;;;21.12;26.70
63535;BME280;55128;50.230;18.944;2023-04-27T06:41:36;98787.56;;;21.67;25.53
63535;BME280;55128;50.230;18.944;2023-04-27T06:46:37;98781.72;;;22.81;23.59
63535;BME280;55128;50.230;18.944;2023-04-27T06:51:37;98783.47;;;22.52;23.45
63535;BME280;55128;50.230;18.944;2023-04-27T06:56:37;98782.47;;;22.34;24.25
63535;BME280;55128;50.230;18.944;2023-04-27T07:01:38;98785.25;;;22.91;22.92
63535;BME280;55128;50.230;18.944;2023-04-27T07:06:38;98781.31;;;22.27;23.57
63535;BME280;55128;50.230;18.944;2023-04-27T07:11:39;98783.31;;;24.41;21.56
63535;BME280;55128;50.230;18.944;2023-04-27T07:16:39;98776.47;;;24.19;21.25
63535;BME280;55128;50.230;18.944;2023-04-27T07:21:39;98781.44;;;21.65;22.57
63535;BME280;55128;50.230;18.944;2023-04-27T07:26:40;98780.19;;;19.22;25.77
63535;BME280;55128;50.230;18.944;2023-04-27T07:31:41;98775.69;;;17.92;27.72
63535;BME280;55128;50.230;18.944;2023-04-27T07:36:43;98778.00;;;16.84;29.69
63535;BME280;55128;50.230;18.944;2023-04-27T07:41:44;98765.72;;;18.54;26.85
63535;BME280;55128;50.230;18.944;2023-04-27T07:46:44;98776.47;;;20.34;24.79
63535;BME280;55128;50.230;18.944;2023-04-27T07:51:48;98773.75;;;20.02;22.02
63535;BME280;55128;50.230;18.944;2023-04-27T07:56:49;98779.56;;;20.30;23.11
63535;BME280;55128;50.230;18.944;2023-04-27T08:01:49;98777.88;;;17.87;24.98
63535;BME280;55128;50.230;18.944;2023-04-27T08:06:49;98777.72;;;20.51;24.15
63535;BME280;55128;50.230;18.944;2023-04-27T08:11:50;98780.88;;;20.03;22.69
63535;BME280;55128;50.230;18.944;2023-04-27T08:16:50;98780.28;;;18.87;24.27
63535;BME280;55128;50.230;18.944;2023-04-27T08:21:51;98774.88;;;17.03;26.44
63535;BME280;55128;50.230;18.944;2023-04-27T08:26:51;98779.53;;;16.74;26.30
63535;BME280;55128;50.230;18.944;2023-04-27T08:31:51;98786.09;;;15.61;27.65
63535;BME280;55128;50.230;18.944;2023-04-27T08:36:52;98784.31;;;15.33;27.98
63535;BME280;55128;50.230;18.944;2023-04-27T08:41:53;98772.97;;;18.05;27.29
63535;BME280;55128;50.230;18.944;2023-04-27T08:46:53;98780.09;;;21.90;21.95
63535;BME280;55128;50.230;18.944;2023-04-27T08:51:53;98782.53;;;18.44;23.96
63535;BME280;55128;50.230;18.944;2023-04-27T08:56:54;98779.81;;;16.84;27.03
63535;BME280;55128;50.230;18.944;2023-04-27T09:01:54;98786.41;;;16.25;27.06
63535;BME280;55128;50.230;18.944;2023-04-27T09:06:54;98788.72;;;15.34;28.46
63535;BME280;55128;50.230;18.944;2023-04-27T09:11:55;98788.34;;;15.11;29.41
63535;BME280;55128;50.230;18.944;2023-04-27T09:16:56;98778.09;;;13.83;29.95
63535;BME280;55128;50.230;18.944;2023-04-27T09:22:10;98778.69;;;14.04;31.67
63535;BME280;55128;50.230;18.944;2023-04-27T09:27:18;98784.38;;;13.97;31.32
63535;BME280;55128;50.230;18.944;2023-04-27T09:32:19;98780.94;;;12.81;32.81
63535;BME280;55128;50.230;18.944;2023-04-27T09:37:21;98785.91;;;12.71;33.87
63535;BME280;55128;50.230;18.944;2023-04-27T09:42:21;98780.81;;;12.84;32.14
63535;BME280;55128;50.230;18.944;2023-04-27T09:47:22;98783.06;;;13.25;31.33
63535;BME280;55128;50.230;18.944;2023-04-27T09:52:23;98787.84;;;13.18;32.08
63535;BME280;55128;50.230;18.944;2023-04-27T10:02:53;98770.56;;;14.82;29.59
63535;BME280;55128;50.230;18.944;2023-04-27T10:07:55;98772.88;;;15.02;29.09
63535;BME280;55128;50.230;18.944;2023-04-27T10:13:00;98769.81;;;15.08;28.78
63535;BME280;55128;50.230;18.944;2023-04-27T10:18:04;98776.25;;;15.76;27.90
63535;BME280;55128;50.230;18.944;2023-04-27T10:23:05;98773.69;;;14.74;28.23
63535;BME280;55128;50.230;18.944;2023-04-27T10:28:05;98774.72;;;14.11;31.12
63535;BME280;55128;50.230;18.944;2023-04-27T10:33:09;98777.00;;;13.39;31.45
63535;BME280;55128;50.230;18.944;2023-04-27T10:38:18;98777.25;;;13.01;31.81
63535;BME280;55128;50.230;18.944;2023-04-27T10:43:24;98791.75;;;12.78;33.06
63535;BME280;55128;50.230;18.944;2023-04-27T10:48:28;98782.28;;;12.72;32.99
63535;BME280;55128;50.230;18.944;2023-04-27T10:53:33;98793.09;;;12.52;32.90
63535;BME280;55128;50.230;18.944;2023-04-27T10:58:36;98785.94;;;12.87;33.48
63535;BME280;55128;50.230;18.944;2023-04-27T11:03:37;98794.03;;;13.52;32.71
63535;BME280;55128;50.230;18.944;2023-04-27T11:08:43;98789.41;;;13.56;31.76
63535;BME280;55128;50.230;18.944;2023-04-27T11:13:47;98780.28;;;13.44;31.67
63535;BME280;55128;50.230;18.944;2023-04-27T11:18:48;98785.97;;;13.54;31.39
63535;BME280;55128;50.230;18.944;2023-04-27T11:23:49;98790.13;;;14.06;32.58
63535;BME280;55128;50.230;18.944;2023-04-27T11:28:58;98791.09;;;14.05;31.11
63535;BME280;55128;50.230;18.944;2023-04-27T11:33:59;98787.22;;;14.10;30.62
63535;BME280;55128;50.230;18.944;2023-04-27T11:39:00;98788.97;;;14.56;30.30
63535;BME280;55128;50.230;18.944;2023-04-27T11:44:07;98789.13;;;14.38;30.74
63535;BME280;55128;50.230;18.944;2023-04-27T11:49:08;98798.91;;;14.24;31.25
63535;BME280;55128;50.230;18.944;2023-04-27T11:54:08;98788.75;;;14.45;31.16
63535;BME280;55128;50.230;18.944;2023-04-27T11:59:19;98787.34;;;14.84;29.85
63535;BME280;55128;50.230;18.944;2023-04-27T12:04:20;98784.31;;;14.75;30.36
63535;BME280;55128;50.230;18.944;2023-04-27T12:09:20;98786.75;;;14.64;30.17
63535;BME280;55128;50.230;18.944;2023-04-27T12:14:21;98799.28;;;14.48;30.59
63535;BME280;55128;50.230;18.944;2023-04-27T12:19:22;98793.09;;;14.77;28.97
63535;BME280;55128;50.230;18.944;2023-04-27T12:24:25;98792.41;;;14.88;28.40
63535;BME280;55128;50.230;18.944;2023-04-27T12:29:26;98779.06;;;15.03;27.74
63535;BME280;55128;50.230;18.944;2023-04-27T12:34:26;98778.38;;;14.70;29.18
63535;BME280;55128;50.230;18.944;2023-04-27T12:39:27;98781.63;;;14.75;29.25
63535;BME280;55128;50.230;18.944;2023-04-27T12:44:27;98786.09;;;14.75;29.66
63535;BME280;55128;50.230;18.944;2023-04-27T12:49:28;98781.72;;;14.88;28.87
63535;BME280;55128;50.230;18.944;2023-04-27T12:54:28;98786.81;;;15.22;28.16
63535;BME280;55128;50.230;18.944;2023-04-27T12:59:29;98779.44;;;15.25;27.87
63535;BME280;55128;50.230;18.944;2023-04-27T13:04:30;98776.19;;;15.49;27.78
63535;BME280;55128;50.230;18.944;2023-04-27T13:09:30;98778.28;;;14.86;28.56
63535;BME280;55128;50.230;18.944;2023-04-27T13:14:31;98778.78;;;14.93;28.81
63535;BME280;55128;50.230;18.944;2023-04-27T13:19:33;98771.06;;;14.58;30.38
63535;BME280;55128;50.230;18.944;2023-04-27T13:24:33;98772.00;;;13.96;30.46
63535;BME280;55128;50.230;18.944;2023-04-27T13:29:35;98764.28;;;13.44;31.84
63535;BME280;55128;50.230;18.944;2023-04-27T13:34:35;98774.16;;;13.74;31.75
63535;BME280;55128;50.230;18.944;2023-04-27T13:39:35;98777.59;;;13.92;32.03
63535;BME280;55128;50.230;18.944;2023-04-27T13:44:36;98778.88;;;13.53;32.11
63535;BME280;55128;50.230;18.944;2023-04-27T13:49:37;98778.56;;;13.75;31.33
63535;BME280;55128;50.230;18.944;2023-04-27T13:54:37;98780.00;;;13.33;32.04
63535;BME280;55128;50.230;18.944;2023-04-27T13:59:37;98794.03;;;13.52;31.98
63535;BME280;55128;50.230;18.944;2023-04-27T14:04:38;98791.03;;;13.43;32.57
63535;BME280;55128;50.230;18.944;2023-04-27T14:09:38;98792.28;;;13.35;32.67
63535;BME280;55128;50.230;18.944;2023-04-27T14:14:39;98788.78;;;13.17;32.99
63535;BME280;55128;50.230;18.944;2023-04-27T14:19:39;98792.13;;;13.38;32.16
63535;BME280;55128;50.230;18.944;2023-04-27T14:24:40;98799.38;;;13.52;32.72
63535;BME280;55128;50.230;18.944;2023-04-27T14:29:40;98800.19;;;13.03;32.68
63535;BME280;55128;50.230;18.944;2023-04-27T14:34:41;98798.66;;;13.33;33.51
63535;BME280;55128;50.230;18.944;2023-04-27T14:39:41;98804.72;;;13.52;31.68
63535;BME280;55128;50.230;18.944;2023-04-27T14:44:41;98802.38;;;13.62;31.75
63535;BME280;55128;50.230;18.944;2023-04-27T14:49:42;98803.16;;;13.15;31.58
63535;BME280;55128;50.230;18.944;2023-04-27T14:54:43;98804.19;;;12.95;32.24
63535;BME280;55128;50.230;18.944;2023-04-27T14:59:46;98797.47;;;13.21;32.60
63535;BME280;55128;50.230;18.944;2023-04-27T15:04:46;98804.19;;;13.12;32.35
63535;BME280;55128;50.230;18.944;2023-04-27T15:09:46;98810.72;;;13.22;32.10
63535;BME280;55128;50.230;18.944;2023-04-27T15:14:47;98815.28;;;13.20;32.54
63535;BME280;55128;50.230;18.944;2023-04-27T15:19:49;98814.78;;;13.14;32.82
63535;BME280;55128;50.230;18.944;2023-04-27T15:24:51;98821.47;;;12.53;33.03
63535;BME280;55128;50.230;18.944;2023-04-27T15:29:52;98821.44;;;13.05;33.39
63535;BME280;55128;50.230;18.944;2023-04-27T15:34:53;98817.22;;;13.01;33.86
63535;BME280;55128;50.230;18.944;2023-04-27T15:39:54;98814.84;;;12.95;34.22
63535;BME280;55128;50.230;18.944;2023-04-27T15:44:54;98809.41;;;12.80;34.42
63535;BME280;55128;50.230;18.944;2023-04-27T15:49:56;98822.50;;;12.68;34.70
63535;BME280;55128;50.230;18.944;2023-04-27T15:54:59;98824.69;;;12.59;34.49
63535;BME280;55128;50.230;18.944;2023-04-27T16:00:00;98820.94;;;12.63;34.28
63535;BME280;55128;50.230;18.944;2023-04-27T16:05:00;98825.47;;;12.61;34.02
63535;BME280;55128;50.230;18.944;2023-04-27T16:10:01;98817.88;;;12.54;35.25
63535;BME280;55128;50.230;18.944;2023-04-27T16:15:01;98818.03;;;12.51;34.82
63535;BME280;55128;50.230;18.944;2023-04-27T16:20:05;98825.06;;;12.34;35.50
63535;BME280;55128;50.230;18.944;2023-04-27T16:25:07;98826.59;;;12.03;35.98
63535;BME280;55128;50.230;18.944;2023-04-27T16:30:09;98824.56;;;11.90;36.47
63535;BME280;55128;50.230;18.944;2023-04-27T16:35:10;98822.84;;;12.08;36.30
63535;BME280;55128;50.230;18.944;2023-04-27T16:40:10;98824.19;;;11.97;36.42
63535;BME280;55128;50.230;18.944;2023-04-27T16:45:11;98821.41;;;12.00;36.53
63535;BME280;55128;50.230;18.944;2023-04-27T16:50:11;98829.25;;;11.84;37.04
63535;BME280;55128;50.230;18.944;2023-04-27T16:55:12;98832.19;;;11.59;38.24
63535;BME280;55128;50.230;18.944;2023-04-27T17:00:13;98839.97;;;11.45;37.83
63535;BME280;55128;50.230;18.944;2023-04-27T17:05:13;98837.94;;;11.50;38.22
63535;BME280;55128;50.230;18.944;2023-04-27T17:10:14;98840.09;;;11.42;38.43
63535;BME280;55128;50.230;18.944;2023-04-27T17:15:15;98843.81;;;11.38;39.02
63535;BME280;55128;50.230;18.944;2023-04-27T17:20:17;98840.72;;;11.28;39.46
63535;BME280;55128;50.230;18.944;2023-04-27T17:25:18;98848.16;;;11.20;40.97
63535;BME280;55128;50.230;18.944;2023-04-27T17:30:18;98838.91;;;11.09;40.90
63535;BME280;55128;50.230;18.944;2023-04-27T17:35:19;98849.66;;;10.86;41.85
63535;BME280;55128;50.230;18.944;2023-04-27T17:40:19;98840.03;;;10.63;42.48
63535;BME280;55128;50.230;18.944;2023-04-27T17:45:20;98845.84;;;10.28;43.55
63535;BME280;55128;50.230;18.944;2023-04-27T17:50:20;98845.31;;;9.98;44.82
63535;BME280;55128;50.230;18.944;2023-04-27T17:55:22;98842.44;;;9.59;45.01
63535;BME280;55128;50.230;18.944;2023-04-27T18:00:22;98845.63;;;9.45;45.81
63535;BME280;55128;50.230;18.944;2023-04-27T18:05:23;98843.88;;;9.20;46.65
63535;BME280;55128;50.230;18.944;2023-04-27T18:10:23;98850.50;;;8.83;48.62
63535;BME280;55128;50.230;18.944;2023-04-27T18:15:24;98864.25;;;8.41;49.37
63535;BME280;55128;50.230;18.944;2023-04-27T18:20:24;98864.63;;;8.02;49.94
63535;BME280;55128;50.230;18.944;2023-04-27T18:25:25;98865.91;;;7.90;50.66
63535;BME280;55128;50.230;18.944;2023-04-27T18:30:25;98877.00;;;7.73;51.19
63535;BME280;55128;50.230;18.944;2023-04-27T18:35:25;98872.97;;;7.60;51.87
63535;BME280;55128;50.230;18.944;2023-04-27T18:40:26;98876.81;;;7.50;52.83
63535;BME280;55128;50.230;18.944;2023-04-27T18:45:26;98880.19;;;7.24;54.57
63535;BME280;55128;50.230;18.944;2023-04-27T18:50:27;98885.38;;;6.95;54.77
63535;BME280;55128;50.230;18.944;2023-04-27T18:55:27;98879.38;;;6.56;56.35
63535;BME280;55128;50.230;18.944;2023-04-27T19:00:27;98873.38;;;6.49;55.79
63535;BME280;55128;50.230;18.944;2023-04-27T19:05:29;98881.44;;;6.43;56.01
63535;BME280;55128;50.230;18.944;2023-04-27T19:10:30;98885.06;;;6.03;56.66
63535;BME280;55128;50.230;18.944;2023-04-27T19:15:30;98886.25;;;5.88;57.46
63535;BME280;55128;50.230;18.944;2023-04-27T19:20:31;98882.59;;;5.53;59.50
63535;BME280;55128;50.230;18.944;2023-04-27T19:25:31;98886.00;;;5.60;57.38
63535;BME280;55128;50.230;18.944;2023-04-27T19:30:32;98893.75;;;5.24;59.33
63535;BME280;55128;50.230;18.944;2023-04-27T19:35:33;98896.53;;;5.16;59.35
63535;BME280;55128;50.230;18.944;2023-04-27T19:40:33;98902.09;;;5.01;59.40
63535;BME280;55128;50.230;18.944;2023-04-27T19:45:33;98906.69;;;4.90;60.81
63535;BME280;55128;50.230;18.944;2023-04-27T19:50:34;98902.50;;;4.79;60.81
63535;BME280;55128;50.230;18.944;2023-04-27T19:55:37;98897.34;;;4.73;61.79
63535;BME280;55128;50.230;18.944;2023-04-27T20:00:39;98899.22;;;4.65;62.23
63535;BME280;55128;50.230;18.944;2023-04-27T20:05:39;98901.28;;;4.47;61.52
63535;BME280;55128;50.230;18.944;2023-04-27T20:10:41;98902.53;;;4.26;63.50
63535;BME280;55128;50.230;18.944;2023-04-27T20:15:41;98903.41;;;4.25;62.26
63535;BME280;55128;50.230;18.944;2023-04-27T20:20:42;98904.44;;;4.17;63.79
63535;BME280;55128;50.230;18.944;2023-04-27T20:25:42;98902.13;;;3.94;65.09
63535;BME280;55128;50.230;18.944;2023-04-27T20:30:43;98910.97;;;3.88;65.40
63535;BME280;55128;50.230;18.944;2023-04-27T20:35:44;98911.88;;;3.87;64.75
63535;BME280;55128;50.230;18.944;2023-04-27T20:40:45;98906.72;;;3.79;64.69
63535;BME280;55128;50.230;18.944;2023-04-27T20:45:56;98912.25;;;3.58;65.30
63535;BME280;55128;50.230;18.944;2023-04-27T20:50:56;98913.25;;;3.49;65.45
63535;BME280;55128;50.230;18.944;2023-04-27T20:55:57;98913.31;;;3.44;65.51
63535;BME280;55128;50.230;18.944;2023-04-27T21:00:57;98915.28;;;3.27;66.91
63535;BME280;55128;50.230;18.944;2023-04-27T21:05:57;98916.41;;;3.04;67.94
63535;BME280;55128;50.230;18.944;2023-04-27T21:10:58;98914.59;;;3.09;67.94
63535;BME280;55128;50.230;18.944;2023-04-27T21:15:58;98913.78;;;3.03;68.07
63535;BME280;55128;50.230;18.944;2023-04-27T21:20:58;98908.63;;;2.97;67.95
63535;BME280;55128;50.230;18.944;2023-04-27T21:25:59;98901.81;;;2.77;68.28
63535;BME280;55128;50.230;18.944;2023-04-27T21:30:59;98906.19;;;2.77;68.63
63535;BME280;55128;50.230;18.944;2023-04-27T21:35:59;98903.72;;;2.63;69.27
63535;BME280;55128;50.230;18.944;2023-04-27T21:41:02;98912.63;;;2.42;68.34
63535;BME280;55128;50.230;18.944;2023-04-27T21:46:03;98914.50;;;2.26;68.89
63535;BME280;55128;50.230;18.944;2023-04-27T21:51:03;98908.44;;;2.19;68.85
63535;BME280;55128;50.230;18.944;2023-04-27T21:56:04;98911.06;;;2.18;69.08
63535;BME280;55128;50.230;18.944;2023-04-27T22:01:04;98918.00;;;2.23;68.81
63535;BME280;55128;50.230;18.944;2023-04-27T22:06:04;98911.91;;;2.23;68.84
63535;BME280;55128;50.230;18.944;2023-04-27T22:11:05;98920.63;;;2.23;68.71
63535;BME280;55128;50.230;18.944;2023-04-27T22:16:05;98919.78;;;2.21;71.19
63535;BME280;55128;50.230;18.944;2023-04-27T22:21:06;98910.94;;;2.34;71.08
63535;BME280;55128;50.230;18.944;2023-04-27T22:26:07;98914.47;;;2.32;70.55
63535;BME280;55128;50.230;18.944;2023-04-27T22:31:07;98917.13;;;2.24;71.06
63535;BME280;55128;50.230;18.944;2023-04-27T22:36:08;98911.94;;;2.20;70.11
63535;BME280;55128;50.230;18.944;2023-04-27T22:41:08;98907.63;;;2.12;70.81
63535;BME280;55128;50.230;18.944;2023-04-27T22:46:09;98907.72;;;1.99;71.41
63535;BME280;55128;50.230;18.944;2023-04-27T22:51:09;98912.03;;;2.04;69.97
63535;BME280;55128;50.230;18.944;2023-04-27T22:56:10;98919.03;;;2.07;70.69
63535;BME280;55128;50.230;18.944;2023-04-27T23:01:10;98920.63;;;2.23;70.74
63535;BME280;55128;50.230;18.944;2023-04-27T23:06:12;98918.91;;;2.25;72.14
63535;BME280;55128;50.230;18.944;2023-04-27T23:11:13;98907.38;;;2.43;71.98
63535;BME280;55128;50.230;18.944;2023-04-27T23:16:14;98915.16;;;2.49;71.77
63535;BME280;55128;50.230;18.944;2023-04-27T23:21:15;98916.78;;;2.67;72.07
63535;BME280;55128;50.230;18.944;2023-04-27T23:26:15;98921.94;;;2.73;70.78
63535;BME280;55128;50.230;18.944;2023-04-27T23:31:16;98924.50;;;2.81;70.51
63535;BME280;55128;50.230;18.944;2023-04-27T23:36:16;98916.53;;;2.92;70.13
63535;BME280;55128;50.230;18.944;2023-04-27T23:41:17;98914.75;;;2.94;70.72
63535;BME280;55128;50.230;18.944;2023-04-27T23:46:17;98911.16;;;3.04;69.49
63535;BME280;55128;50.230;18.944;2023-04-27T23:51:17;98902.44;;;3.02;70.39
63535;BME280;55128;50.230;18.944;2023-04-27T23:56:18;98896.22;;;3.09;70.88
